sensor_id;sensor_type;location;lat;lon;timestamp;P1;durP1;ratioP1;P2;durP2;ratioP2
37087;SDS011;23002;52.676;6.432;2023-11-21T00:00:14;45.97;;;14.90;;
37087;SDS011;23002;52.676;6.432;2023-11-21T00:02:42;47.17;;;15.23;;
37087;SDS011;23002;52.676;6.432;2023-11-21T00:05:10;43.42;;;15.27;;
37087;SDS011;23002;52.676;6.432;2023-11-21T00:07:37;43.22;;;14.95;;
37087;SDS011;23002;52.676;6.432;2023-11-21T00:10:05;41.53;;;14.63;;
37087;SDS011;23002;52.676;6.432;2023-11-21T00:12:32;42.05;;;14.82;;
37087;SDS011;23002;52.676;6.432;2023-11-21T00:15:00;48.95;;;15.13;;
37087;SDS011;23002;52.676;6.432;2023-11-21T00:17:28;39.72;;;13.90;;
37087;SDS011;23002;52.676;6.432;2023-11-21T00:19:55;43.72;;;13.60;;
37087;SDS011;23002;52.676;6.432;2023-11-21T00:22:22;50.92;;;15.10;;
37087;SDS011;23002;52.676;6.432;2023-11-21T00:24:49;53.10;;;15.57;;
37087;SDS011;23002;52.676;6.432;2023-11-21T00:27:16;52.78;;;16.13;;
37087;SDS011;23002;52.676;6.432;2023-11-21T00:29:43;47.40;;;15.48;;
37087;SDS011;23002;52.676;6.432;2023-11-21T00:32:10;49.53;;;15.10;;
37087;SDS011;23002;52.676;6.432;2023-11-21T00:34:38;60.35;;;16.23;;
37087;SDS011;23002;52.676;6.432;2023-11-21T00:37:06;37.42;;;14.60;;
37087;SDS011;23002;52.676;6.432;2023-11-21T00:39:34;49.97;;;16.83;;
37087;SDS011;23002;52.676;6.432;2023-11-21T00:42:01;49.35;;;15.50;;
37087;SDS011;23002;52.676;6.432;2023-11-21T00:44:28;40.10;;;15.57;;
37087;SDS011;23002;52.676;6.432;2023-11-21T00:46:55;55.03;;;16.45;;
37087;SDS011;23002;52.676;6.432;2023-11-21T00:49:22;53.10;;;15.75;;
37087;SDS011;23002;52.676;6.432;2023-11-21T00:51:49;48.30;;;14.88;;
37087;SDS011;23002;52.676;6.432;2023-11-21T00:54:17;48.25;;;15.43;;
37087;SDS011;23002;52.676;6.432;2023-11-21T00:56:44;45.13;;;14.90;;
37087;SDS011;23002;52.676;6.432;2023-11-21T00:59:13;50.35;;;16.70;;
37087;SDS011;23002;52.676;6.432;2023-11-21T01:01:40;43.53;;;16.27;;
37087;SDS011;23002;52.676;6.432;2023-11-21T01:04:08;46.28;;;15.93;;
37087;SDS011;23002;52.676;6.432;2023-11-21T01:06:35;49.35;;;16.08;;
37087;SDS011;23002;52.676;6.432;2023-11-21T01:09:02;47.70;;;15.32;;
37087;SDS011;23002;52.676;6.432;2023-11-21T01:14:03;40.42;;;14.18;;
37087;SDS011;23002;52.676;6.432;2023-11-21T01:16:31;46.50;;;15.40;;
37087;SDS011;23002;52.676;6.432;2023-11-21T01:19:01;49.03;;;14.95;;
37087;SDS011;23002;52.676;6.432;2023-11-21T01:21:28;43.72;;;14.80;;
37087;SDS011;23002;52.676;6.432;2023-11-21T01:23:56;44.17;;;14.20;;
37087;SDS011;23002;52.676;6.432;2023-11-21T01:26:23;44.65;;;15.07;;
37087;SDS011;23002;52.676;6.432;2023-11-21T01:28:50;43.67;;;14.45;;
37087;SDS011;23002;52.676;6.432;2023-11-21T01:31:18;45.17;;;15.05;;
37087;SDS011;23002;52.676;6.432;2023-11-21T01:33:46;40.08;;;13.70;;
37087;SDS011;23002;52.676;6.432;2023-11-21T01:36:14;45.08;;;14.88;;
37087;SDS011;23002;52.676;6.432;2023-11-21T01:38:42;37.22;;;13.32;;
37087;SDS011;23002;52.676;6.432;2023-11-21T01:41:09;42.78;;;14.20;;
37087;SDS011;23002;52.676;6.432;2023-11-21T01:43:37;37.95;;;13.52;;
37087;SDS011;23002;52.676;6.432;2023-11-21T01:46:05;37.78;;;13.48;;
37087;SDS011;23002;52.676;6.432;2023-11-21T01:48:32;34.67;;;12.60;;
37087;SDS011;23002;52.676;6.432;2023-11-21T01:51:01;38.85;;;13.98;;
37087;SDS011;23002;52.676;6.432;2023-11-21T01:53:29;40.95;;;14.77;;
37087;SDS011;23002;52.676;6.432;2023-11-21T01:55:56;42.60;;;13.20;;
37087;SDS011;23002;52.676;6.432;2023-11-21T01:58:24;39.72;;;14.60;;
37087;SDS011;23002;52.676;6.432;2023-11-21T02:00:52;39.42;;;13.60;;
37087;SDS011;23002;52.676;6.432;2023-11-21T02:03:21;48.13;;;14.18;;
37087;SDS011;23002;52.676;6.432;2023-11-21T02:05:48;37.17;;;13.93;;
37087;SDS011;23002;52.676;6.432;2023-11-21T02:08:15;40.63;;;13.43;;
37087;SDS011;23002;52.676;6.432;2023-11-21T02:10:42;38.60;;;14.23;;
37087;SDS011;23002;52.676;6.432;2023-11-21T02:13:10;40.00;;;14.13;;
37087;SDS011;23002;52.676;6.432;2023-11-21T02:15:37;39.17;;;13.38;;
37087;SDS011;23002;52.676;6.432;2023-11-21T02:18:05;32.60;;;14.13;;
37087;SDS011;23002;52.676;6.432;2023-11-21T02:20:32;40.47;;;13.50;;
37087;SDS011;23002;52.676;6.432;2023-11-21T02:23:01;40.13;;;14.10;;
37087;SDS011;23002;52.676;6.432;2023-11-21T02:27:56;35.70;;;14.43;;
37087;SDS011;23002;52.676;6.432;2023-11-21T02:30:24;35.72;;;14.73;;
37087;SDS011;23002;52.676;6.432;2023-11-21T02:32:54;35.35;;;13.35;;
37087;SDS011;23002;52.676;6.432;2023-11-21T02:35:23;43.78;;;14.70;;
37087;SDS011;23002;52.676;6.432;2023-11-21T02:37:52;44.65;;;14.80;;
37087;SDS011;23002;52.676;6.432;2023-11-21T02:40:20;43.58;;;13.85;;
37087;SDS011;23002;52.676;6.432;2023-11-21T02:42:47;38.05;;;14.18;;
37087;SDS011;23002;52.676;6.432;2023-11-21T02:45:17;41.45;;;12.52;;
37087;SDS011;23002;52.676;6.432;2023-11-21T02:47:47;39.00;;;13.55;;
37087;SDS011;23002;52.676;6.432;2023-11-21T02:50:16;45.70;;;14.10;;
37087;SDS011;23002;52.676;6.432;2023-11-21T02:52:45;53.88;;;14.77;;
37087;SDS011;23002;52.676;6.432;2023-11-21T02:55:12;40.67;;;14.05;;
37087;SDS011;23002;52.676;6.432;2023-11-21T02:57:40;46.17;;;14.27;;
37087;SDS011;23002;52.676;6.432;2023-11-21T03:00:07;38.22;;;13.93;;
37087;SDS011;23002;52.676;6.432;2023-11-21T03:02:34;44.55;;;15.52;;
37087;SDS011;23002;52.676;6.432;2023-11-21T03:05:06;39.28;;;14.48;;
37087;SDS011;23002;52.676;6.432;2023-11-21T03:07:38;44.95;;;14.40;;
37087;SDS011;23002;52.676;6.432;2023-11-21T03:10:07;43.90;;;14.80;;
37087;SDS011;23002;52.676;6.432;2023-11-21T03:12:38;39.72;;;14.50;;
37087;SDS011;23002;52.676;6.432;2023-11-21T03:15:06;42.45;;;14.43;;
37087;SDS011;23002;52.676;6.432;2023-11-21T03:17:33;46.05;;;15.88;;
37087;SDS011;23002;52.676;6.432;2023-11-21T03:20:00;43.67;;;14.70;;
37087;SDS011;23002;52.676;6.432;2023-11-21T03:22:30;41.17;;;14.65;;
37087;SDS011;23002;52.676;6.432;2023-11-21T03:24:57;42.47;;;14.02;;
37087;SDS011;23002;52.676;6.432;2023-11-21T03:27:25;37.80;;;13.68;;
37087;SDS011;23002;52.676;6.432;2023-11-21T03:29:52;38.35;;;14.25;;
37087;SDS011;23002;52.676;6.432;2023-11-21T03:32:21;46.40;;;15.65;;
37087;SDS011;23002;52.676;6.432;2023-11-21T03:34:54;45.60;;;13.88;;
37087;SDS011;23002;52.676;6.432;2023-11-21T03:37:22;44.35;;;14.60;;
37087;SDS011;23002;52.676;6.432;2023-11-21T03:39:51;38.42;;;13.65;;
37087;SDS011;23002;52.676;6.432;2023-11-21T03:42:18;38.15;;;13.20;;
37087;SDS011;23002;52.676;6.432;2023-11-21T03:44:45;40.35;;;14.18;;
37087;SDS011;23002;52.676;6.432;2023-11-21T03:47:12;47.20;;;14.88;;
37087;SDS011;23002;52.676;6.432;2023-11-21T03:49:39;40.45;;;13.82;;
37087;SDS011;23002;52.676;6.432;2023-11-21T03:52:07;43.05;;;14.32;;
37087;SDS011;23002;52.676;6.432;2023-11-21T03:54:35;43.33;;;14.25;;
37087;SDS011;23002;52.676;6.432;2023-11-21T03:57:02;46.13;;;14.43;;
37087;SDS011;23002;52.676;6.432;2023-11-21T03:59:30;41.47;;;14.05;;
37087;SDS011;23002;52.676;6.432;2023-11-21T04:01:57;35.05;;;13.60;;
37087;SDS011;23002;52.676;6.432;2023-11-21T04:04:24;35.60;;;14.10;;
37087;SDS011;23002;52.676;6.432;2023-11-21T04:06:51;34.05;;;12.52;;
37087;SDS011;23002;52.676;6.432;2023-11-21T04:09:18;40.53;;;14.02;;
37087;SDS011;23002;52.676;6.432;2023-11-21T04:11:45;44.22;;;13.70;;
37087;SDS011;23002;52.676;6.432;2023-11-21T04:14:13;35.42;;;13.23;;
37087;SDS011;23002;52.676;6.432;2023-11-21T04:16:40;37.30;;;12.40;;
37087;SDS011;23002;52.676;6.432;2023-11-21T04:19:08;36.85;;;12.32;;
37087;SDS011;23002;52.676;6.432;2023-11-21T04:21:36;37.85;;;12.57;;
37087;SDS011;23002;52.676;6.432;2023-11-21T04:24:04;76.10;;;14.38;;
37087;SDS011;23002;52.676;6.432;2023-11-21T04:26:32;39.38;;;11.85;;
37087;SDS011;23002;52.676;6.432;2023-11-21T04:28:59;33.50;;;12.63;;
37087;SDS011;23002;52.676;6.432;2023-11-21T04:31:26;33.22;;;11.95;;
37087;SDS011;23002;52.676;6.432;2023-11-21T04:33:53;32.70;;;12.07;;
37087;SDS011;23002;52.676;6.432;2023-11-21T04:36:21;36.22;;;13.40;;
37087;SDS011;23002;52.676;6.432;2023-11-21T04:38:48;31.23;;;13.05;;
37087;SDS011;23002;52.676;6.432;2023-11-21T04:41:15;40.42;;;12.60;;
37087;SDS011;23002;52.676;6.432;2023-11-21T04:43:42;36.72;;;11.93;;
37087;SDS011;23002;52.676;6.432;2023-11-21T04:46:09;50.30;;;13.48;;
37087;SDS011;23002;52.676;6.432;2023-11-21T04:48:36;35.95;;;13.10;;
37087;SDS011;23002;52.676;6.432;2023-11-21T04:51:03;37.08;;;12.18;;
37087;SDS011;23002;52.676;6.432;2023-11-21T04:53:31;35.67;;;12.18;;
37087;SDS011;23002;52.676;6.432;2023-11-21T04:55:58;28.58;;;11.48;;
37087;SDS011;23002;52.676;6.432;2023-11-21T04:58:25;30.40;;;12.15;;
37087;SDS011;23002;52.676;6.432;2023-11-21T05:00:52;40.10;;;12.18;;
37087;SDS011;23002;52.676;6.432;2023-11-21T05:03:19;30.95;;;11.35;;
37087;SDS011;23002;52.676;6.432;2023-11-21T05:05:47;37.85;;;12.50;;
37087;SDS011;23002;52.676;6.432;2023-11-21T05:08:14;29.90;;;12.00;;
37087;SDS011;23002;52.676;6.432;2023-11-21T05:10:41;38.92;;;12.25;;
37087;SDS011;23002;52.676;6.432;2023-11-21T05:13:08;35.42;;;12.43;;
37087;SDS011;23002;52.676;6.432;2023-11-21T05:15:36;40.25;;;11.98;;
37087;SDS011;23002;52.676;6.432;2023-11-21T05:18:05;29.50;;;11.73;;
37087;SDS011;23002;52.676;6.432;2023-11-21T05:20:32;30.92;;;10.77;;
37087;SDS011;23002;52.676;6.432;2023-11-21T05:22:59;27.52;;;11.48;;
37087;SDS011;23002;52.676;6.432;2023-11-21T05:25:27;30.60;;;11.85;;
37087;SDS011;23002;52.676;6.432;2023-11-21T05:27:54;31.23;;;11.18;;
37087;SDS011;23002;52.676;6.432;2023-11-21T05:30:21;28.90;;;10.68;;
37087;SDS011;23002;52.676;6.432;2023-11-21T05:32:48;25.05;;;11.55;;
37087;SDS011;23002;52.676;6.432;2023-11-21T05:35:16;28.42;;;11.23;;
37087;SDS011;23002;52.676;6.432;2023-11-21T05:37:44;26.38;;;11.55;;
37087;SDS011;23002;52.676;6.432;2023-11-21T05:40:12;24.52;;;11.07;;
37087;SDS011;23002;52.676;6.432;2023-11-21T05:42:40;32.50;;;13.10;;
37087;SDS011;23002;52.676;6.432;2023-11-21T05:45:07;38.08;;;15.60;;
37087;SDS011;23002;52.676;6.432;2023-11-21T05:47:39;32.47;;;14.00;;
37087;SDS011;23002;52.676;6.432;2023-11-21T05:50:08;34.08;;;12.52;;
37087;SDS011;23002;52.676;6.432;2023-11-21T05:52:41;35.05;;;13.15;;
37087;SDS011;23002;52.676;6.432;2023-11-21T05:55:09;26.30;;;11.50;;
37087;SDS011;23002;52.676;6.432;2023-11-21T05:57:36;22.52;;;11.02;;
37087;SDS011;23002;52.676;6.432;2023-11-21T06:00:08;23.77;;;10.02;;
37087;SDS011;23002;52.676;6.432;2023-11-21T06:02:44;26.30;;;10.70;;
37087;SDS011;23002;52.676;6.432;2023-11-21T06:05:11;21.30;;;9.80;;
37087;SDS011;23002;52.676;6.432;2023-11-21T06:07:38;26.55;;;10.05;;
37087;SDS011;23002;52.676;6.432;2023-11-21T06:10:07;23.50;;;9.70;;
37087;SDS011;23002;52.676;6.432;2023-11-21T06:12:37;22.73;;;10.67;;
37087;SDS011;23002;52.676;6.432;2023-11-21T06:15:06;21.88;;;9.15;;
37087;SDS011;23002;52.676;6.432;2023-11-21T06:17:35;27.00;;;9.52;;
37087;SDS011;23002;52.676;6.432;2023-11-21T06:20:03;23.23;;;9.15;;
37087;SDS011;23002;52.676;6.432;2023-11-21T06:22:36;23.42;;;9.77;;
37087;SDS011;23002;52.676;6.432;2023-11-21T06:25:04;23.70;;;9.15;;
37087;SDS011;23002;52.676;6.432;2023-11-21T06:27:31;21.00;;;10.30;;
37087;SDS011;23002;52.676;6.432;2023-11-21T06:29:59;24.80;;;10.50;;
37087;SDS011;23002;52.676;6.432;2023-11-21T06:32:26;25.20;;;9.95;;
37087;SDS011;23002;52.676;6.432;2023-11-21T06:34:56;23.33;;;9.35;;
37087;SDS011;23002;52.676;6.432;2023-11-21T06:37:26;27.38;;;10.55;;
37087;SDS011;23002;52.676;6.432;2023-11-21T06:39:53;27.17;;;9.68;;
37087;SDS011;23002;52.676;6.432;2023-11-21T06:42:22;25.50;;;10.48;;
37087;SDS011;23002;52.676;6.432;2023-11-21T06:44:50;27.25;;;10.55;;
37087;SDS011;23002;52.676;6.432;2023-11-21T06:47:23;29.10;;;10.82;;
37087;SDS011;23002;52.676;6.432;2023-11-21T06:49:51;34.33;;;10.98;;
37087;SDS011;23002;52.676;6.432;2023-11-21T06:52:19;29.40;;;10.70;;
37087;SDS011;23002;52.676;6.432;2023-11-21T06:54:47;35.25;;;12.35;;
37087;SDS011;23002;52.676;6.432;2023-11-21T06:57:15;35.97;;;12.63;;
37087;SDS011;23002;52.676;6.432;2023-11-21T06:59:43;30.00;;;11.65;;
37087;SDS011;23002;52.676;6.432;2023-11-21T07:02:10;33.85;;;13.43;;
37087;SDS011;23002;52.676;6.432;2023-11-21T07:04:37;30.92;;;12.02;;
37087;SDS011;23002;52.676;6.432;2023-11-21T07:07:06;31.25;;;12.95;;
37087;SDS011;23002;52.676;6.432;2023-11-21T07:09:33;32.35;;;12.05;;
37087;SDS011;23002;52.676;6.432;2023-11-21T07:12:01;32.05;;;13.27;;
37087;SDS011;23002;52.676;6.432;2023-11-21T07:14:30;29.85;;;12.75;;
37087;SDS011;23002;52.676;6.432;2023-11-21T07:16:58;40.63;;;13.20;;
37087;SDS011;23002;52.676;6.432;2023-11-21T07:19:25;37.15;;;13.23;;
37087;SDS011;23002;52.676;6.432;2023-11-21T07:21:52;42.85;;;14.82;;
37087;SDS011;23002;52.676;6.432;2023-11-21T07:24:20;37.97;;;13.68;;
37087;SDS011;23002;52.676;6.432;2023-11-21T07:26:50;39.10;;;13.18;;
37087;SDS011;23002;52.676;6.432;2023-11-21T07:29:17;36.90;;;13.23;;
37087;SDS011;23002;52.676;6.432;2023-11-21T07:31:44;42.65;;;13.95;;
37087;SDS011;23002;52.676;6.432;2023-11-21T07:34:11;43.42;;;15.23;;
37087;SDS011;23002;52.676;6.432;2023-11-21T07:36:38;37.95;;;13.95;;
37087;SDS011;23002;52.676;6.432;2023-11-21T07:39:06;42.25;;;13.57;;
37087;SDS011;23002;52.676;6.432;2023-11-21T07:41:33;38.05;;;14.15;;
37087;SDS011;23002;52.676;6.432;2023-11-21T07:44:00;37.15;;;13.40;;
37087;SDS011;23002;52.676;6.432;2023-11-21T07:46:27;35.30;;;13.13;;
37087;SDS011;23002;52.676;6.432;2023-11-21T07:48:54;31.30;;;12.65;;
37087;SDS011;23002;52.676;6.432;2023-11-21T07:51:22;35.92;;;14.15;;
37087;SDS011;23002;52.676;6.432;2023-11-21T07:53:49;34.00;;;13.40;;
37087;SDS011;23002;52.676;6.432;2023-11-21T07:56:16;36.03;;;13.23;;
37087;SDS011;23002;52.676;6.432;2023-11-21T07:58:44;33.90;;;13.35;;
37087;SDS011;23002;52.676;6.432;2023-11-21T08:01:11;34.00;;;12.30;;
37087;SDS011;23002;52.676;6.432;2023-11-21T08:03:39;38.67;;;13.68;;
37087;SDS011;23002;52.676;6.432;2023-11-21T08:06:06;32.42;;;13.02;;
37087;SDS011;23002;52.676;6.432;2023-11-21T08:08:33;37.17;;;13.23;;
37087;SDS011;23002;52.676;6.432;2023-11-21T08:11:00;32.72;;;12.77;;
37087;SDS011;23002;52.676;6.432;2023-11-21T08:13:29;39.15;;;12.95;;
37087;SDS011;23002;52.676;6.432;2023-11-21T08:15:57;41.97;;;13.48;;
37087;SDS011;23002;52.676;6.432;2023-11-21T08:18:28;33.75;;;12.60;;
37087;SDS011;23002;52.676;6.432;2023-11-21T08:20:56;41.67;;;14.43;;
37087;SDS011;23002;52.676;6.432;2023-11-21T08:23:23;39.58;;;12.55;;
37087;SDS011;23002;52.676;6.432;2023-11-21T08:25:52;39.38;;;13.18;;
37087;SDS011;23002;52.676;6.432;2023-11-21T08:28:19;39.47;;;13.65;;
37087;SDS011;23002;52.676;6.432;2023-11-21T08:30:48;39.80;;;13.05;;
37087;SDS011;23002;52.676;6.432;2023-11-21T08:33:15;33.90;;;13.25;;
37087;SDS011;23002;52.676;6.432;2023-11-21T08:35:43;32.80;;;11.68;;
37087;SDS011;23002;52.676;6.432;2023-11-21T08:38:10;30.63;;;12.23;;
37087;SDS011;23002;52.676;6.432;2023-11-21T08:40:38;31.70;;;12.07;;
37087;SDS011;23002;52.676;6.432;2023-11-21T08:43:05;27.55;;;11.80;;
37087;SDS011;23002;52.676;6.432;2023-11-21T08:45:34;34.38;;;11.98;;
37087;SDS011;23002;52.676;6.432;2023-11-21T08:48:01;28.60;;;11.38;;
37087;SDS011;23002;52.676;6.432;2023-11-21T08:50:29;23.67;;;10.25;;
37087;SDS011;23002;52.676;6.432;2023-11-21T08:52:56;25.20;;;10.55;;
37087;SDS011;23002;52.676;6.432;2023-11-21T08:55:23;27.63;;;10.52;;
37087;SDS011;23002;52.676;6.432;2023-11-21T08:57:50;32.78;;;11.20;;
37087;SDS011;23002;52.676;6.432;2023-11-21T09:00:17;30.30;;;10.80;;
37087;SDS011;23002;52.676;6.432;2023-11-21T09:02:45;27.50;;;11.43;;
37087;SDS011;23002;52.676;6.432;2023-11-21T09:05:13;24.30;;;9.85;;
37087;SDS011;23002;52.676;6.432;2023-11-21T09:07:41;28.92;;;10.57;;
37087;SDS011;23002;52.676;6.432;2023-11-21T09:10:09;26.50;;;10.70;;
37087;SDS011;23002;52.676;6.432;2023-11-21T09:12:36;28.23;;;10.88;;
37087;SDS011;23002;52.676;6.432;2023-11-21T09:15:04;24.60;;;10.40;;
37087;SDS011;23002;52.676;6.432;2023-11-21T09:17:32;23.13;;;9.77;;
37087;SDS011;23002;52.676;6.432;2023-11-21T09:20:01;29.05;;;10.27;;
37087;SDS011;23002;52.676;6.432;2023-11-21T09:22:30;27.40;;;10.50;;
37087;SDS011;23002;52.676;6.432;2023-11-21T09:24:58;24.55;;;9.50;;
37087;SDS011;23002;52.676;6.432;2023-11-21T09:27:25;20.60;;;8.52;;
37087;SDS011;23002;52.676;6.432;2023-11-21T09:29:52;24.48;;;9.75;;
37087;SDS011;23002;52.676;6.432;2023-11-21T09:32:20;22.58;;;9.63;;
37087;SDS011;23002;52.676;6.432;2023-11-21T09:34:50;21.50;;;8.20;;
37087;SDS011;23002;52.676;6.432;2023-11-21T09:37:18;19.30;;;7.80;;
37087;SDS011;23002;52.676;6.432;2023-11-21T09:39:45;24.17;;;8.88;;
37087;SDS011;23002;52.676;6.432;2023-11-21T09:42:19;21.45;;;8.73;;
37087;SDS011;23002;52.676;6.432;2023-11-21T09:44:58;20.27;;;8.20;;
37087;SDS011;23002;52.676;6.432;2023-11-21T09:47:30;17.48;;;6.97;;
37087;SDS011;23002;52.676;6.432;2023-11-21T09:49:59;18.42;;;7.60;;
37087;SDS011;23002;52.676;6.432;2023-11-21T09:52:28;18.98;;;7.55;;
37087;SDS011;23002;52.676;6.432;2023-11-21T09:54:56;20.65;;;7.82;;
37087;SDS011;23002;52.676;6.432;2023-11-21T09:57:24;22.50;;;7.88;;
37087;SDS011;23002;52.676;6.432;2023-11-21T09:59:52;21.75;;;7.82;;
37087;SDS011;23002;52.676;6.432;2023-11-21T10:02:26;25.83;;;9.23;;
37087;SDS011;23002;52.676;6.432;2023-11-21T10:04:58;21.63;;;8.88;;
37087;SDS011;23002;52.676;6.432;2023-11-21T10:07:26;28.85;;;10.02;;
37087;SDS011;23002;52.676;6.432;2023-11-21T10:09:55;35.63;;;11.90;;
37087;SDS011;23002;52.676;6.432;2023-11-21T10:12:22;33.88;;;12.68;;
37087;SDS011;23002;52.676;6.432;2023-11-21T10:14:52;35.63;;;11.05;;
37087;SDS011;23002;52.676;6.432;2023-11-21T10:17:22;38.47;;;12.85;;
37087;SDS011;23002;52.676;6.432;2023-11-21T10:19:52;39.95;;;13.55;;
37087;SDS011;23002;52.676;6.432;2023-11-21T10:22:20;40.10;;;12.63;;
37087;SDS011;23002;52.676;6.432;2023-11-21T10:24:49;37.50;;;13.40;;
37087;SDS011;23002;52.676;6.432;2023-11-21T10:27:19;40.92;;;13.50;;
37087;SDS011;23002;52.676;6.432;2023-11-21T10:29:46;37.65;;;15.18;;
37087;SDS011;23002;52.676;6.432;2023-11-21T10:32:13;42.63;;;14.25;;
37087;SDS011;23002;52.676;6.432;2023-11-21T10:34:41;38.20;;;14.13;;
37087;SDS011;23002;52.676;6.432;2023-11-21T10:37:11;38.03;;;13.60;;
37087;SDS011;23002;52.676;6.432;2023-11-21T10:39:39;39.38;;;12.65;;
37087;SDS011;23002;52.676;6.432;2023-11-21T10:42:08;44.63;;;14.98;;
37087;SDS011;23002;52.676;6.432;2023-11-21T10:44:36;56.63;;;15.93;;
37087;SDS011;23002;52.676;6.432;2023-11-21T10:47:04;44.53;;;14.05;;
37087;SDS011;23002;52.676;6.432;2023-11-21T10:49:31;49.83;;;15.35;;
37087;SDS011;23002;52.676;6.432;2023-11-21T10:51:59;44.25;;;15.07;;
37087;SDS011;23002;52.676;6.432;2023-11-21T10:54:26;44.85;;;14.75;;
37087;SDS011;23002;52.676;6.432;2023-11-21T10:56:56;40.25;;;14.63;;
37087;SDS011;23002;52.676;6.432;2023-11-21T10:59:28;35.90;;;12.38;;
37087;SDS011;23002;52.676;6.432;2023-11-21T11:01:57;38.33;;;13.15;;
37087;SDS011;23002;52.676;6.432;2023-11-21T11:04:27;33.63;;;12.75;;
37087;SDS011;23002;52.676;6.432;2023-11-21T11:06:55;35.17;;;14.02;;
37087;SDS011;23002;52.676;6.432;2023-11-21T11:09:23;36.38;;;13.93;;
37087;SDS011;23002;52.676;6.432;2023-11-21T11:11:51;33.30;;;12.95;;
37087;SDS011;23002;52.676;6.432;2023-11-21T11:14:20;32.38;;;14.35;;
37087;SDS011;23002;52.676;6.432;2023-11-21T11:16:53;31.23;;;12.55;;
37087;SDS011;23002;52.676;6.432;2023-11-21T11:19:21;32.17;;;13.38;;
37087;SDS011;23002;52.676;6.432;2023-11-21T11:27:23;28.88;;;12.10;;
37087;SDS011;23002;52.676;6.432;2023-11-21T11:33:21;33.40;;;12.20;;
37087;SDS011;23002;52.676;6.432;2023-11-21T11:35:25;31.35;;;11.00;;
37087;SDS011;23002;52.676;6.432;2023-11-21T11:37:55;27.90;;;10.88;;
37087;SDS011;23002;52.676;6.432;2023-11-21T11:40:25;30.23;;;11.75;;
37087;SDS011;23002;52.676;6.432;2023-11-21T11:43:05;32.05;;;13.18;;
37087;SDS011;23002;52.676;6.432;2023-11-21T11:45:34;30.05;;;12.48;;
37087;SDS011;23002;52.676;6.432;2023-11-21T11:48:04;31.90;;;12.90;;
37087;SDS011;23002;52.676;6.432;2023-11-21T11:50:32;26.02;;;11.85;;
37087;SDS011;23002;52.676;6.432;2023-11-21T11:53:13;22.92;;;11.35;;
37087;SDS011;23002;52.676;6.432;2023-11-21T11:55:41;23.08;;;10.80;;
37087;SDS011;23002;52.676;6.432;2023-11-21T11:58:08;22.63;;;10.75;;
37087;SDS011;23002;52.676;6.432;2023-11-21T12:00:35;22.63;;;11.05;;
37087;SDS011;23002;52.676;6.432;2023-11-21T12:03:04;18.70;;;8.75;;
37087;SDS011;23002;52.676;6.432;2023-11-21T12:05:34;18.52;;;9.95;;
37087;SDS011;23002;52.676;6.432;2023-11-21T12:08:05;17.42;;;8.80;;
37087;SDS011;23002;52.676;6.432;2023-11-21T12:10:34;17.88;;;9.43;;
37087;SDS011;23002;52.676;6.432;2023-11-21T12:13:10;19.38;;;8.75;;
37087;SDS011;23002;52.676;6.432;2023-11-21T12:15:41;17.55;;;9.45;;
37087;SDS011;23002;52.676;6.432;2023-11-21T12:18:08;16.42;;;8.88;;
37087;SDS011;23002;52.676;6.432;2023-11-21T12:20:36;18.73;;;9.77;;
37087;SDS011;23002;52.676;6.432;2023-11-21T12:23:05;15.88;;;8.30;;
37087;SDS011;23002;52.676;6.432;2023-11-21T12:25:32;14.45;;;8.82;;
37087;SDS011;23002;52.676;6.432;2023-11-21T12:28:01;12.63;;;7.20;;
37087;SDS011;23002;52.676;6.432;2023-11-21T12:30:30;11.43;;;6.90;;
37087;SDS011;23002;52.676;6.432;2023-11-21T12:32:58;12.60;;;6.18;;
37087;SDS011;23002;52.676;6.432;2023-11-21T12:35:26;12.82;;;7.00;;
37087;SDS011;23002;52.676;6.432;2023-11-21T12:37:56;11.57;;;6.43;;
37087;SDS011;23002;52.676;6.432;2023-11-21T12:40:25;11.60;;;6.10;;
37087;SDS011;23002;52.676;6.432;2023-11-21T12:42:57;10.77;;;6.15;;
37087;SDS011;23002;52.676;6.432;2023-11-21T12:45:25;10.95;;;6.20;;
37087;SDS011;23002;52.676;6.432;2023-11-21T12:47:54;12.02;;;7.00;;
37087;SDS011;23002;52.676;6.432;2023-11-21T12:50:23;13.60;;;6.55;;
37087;SDS011;23002;52.676;6.432;2023-11-21T12:52:58;11.27;;;6.57;;
37087;SDS011;23002;52.676;6.432;2023-11-21T12:55:25;11.00;;;6.45;;
37087;SDS011;23002;52.676;6.432;2023-11-21T12:57:53;11.65;;;6.57;;
37087;SDS011;23002;52.676;6.432;2023-11-21T13:00:28;11.70;;;6.95;;
37087;SDS011;23002;52.676;6.432;2023-11-21T13:02:56;12.00;;;5.90;;
37087;SDS011;23002;52.676;6.432;2023-11-21T13:05:28;11.55;;;6.10;;
37087;SDS011;23002;52.676;6.432;2023-11-21T13:07:56;13.30;;;7.18;;
37087;SDS011;23002;52.676;6.432;2023-11-21T13:10:24;13.88;;;7.25;;
37087;SDS011;23002;52.676;6.432;2023-11-21T13:12:55;10.93;;;7.07;;
37087;SDS011;23002;52.676;6.432;2023-11-21T13:15:24;12.98;;;6.93;;
37087;SDS011;23002;52.676;6.432;2023-11-21T13:17:51;15.75;;;6.28;;
37087;SDS011;23002;52.676;6.432;2023-11-21T13:20:20;11.65;;;6.32;;
37087;SDS011;23002;52.676;6.432;2023-11-21T13:22:51;9.63;;;5.95;;
37087;SDS011;23002;52.676;6.432;2023-11-21T13:25:29;12.73;;;6.55;;
37087;SDS011;23002;52.676;6.432;2023-11-21T13:27:58;10.40;;;5.40;;
37087;SDS011;23002;52.676;6.432;2023-11-21T13:30:26;8.85;;;5.13;;
37087;SDS011;23002;52.676;6.432;2023-11-21T13:33:00;9.30;;;5.28;;
37087;SDS011;23002;52.676;6.432;2023-11-21T13:35:28;9.07;;;5.80;;
37087;SDS011;23002;52.676;6.432;2023-11-21T13:38:11;10.35;;;5.43;;
37087;SDS011;23002;52.676;6.432;2023-11-21T13:40:39;9.15;;;5.80;;
37087;SDS011;23002;52.676;6.432;2023-11-21T13:43:12;10.80;;;5.82;;
37087;SDS011;23002;52.676;6.432;2023-11-21T13:45:40;9.77;;;5.60;;
37087;SDS011;23002;52.676;6.432;2023-11-21T13:48:10;9.07;;;5.20;;
37087;SDS011;23002;52.676;6.432;2023-11-21T13:50:40;9.70;;;5.50;;
37087;SDS011;23002;52.676;6.432;2023-11-21T13:53:15;9.75;;;5.50;;
37087;SDS011;23002;52.676;6.432;2023-11-21T13:55:51;11.38;;;5.10;;
37087;SDS011;23002;52.676;6.432;2023-11-21T13:58:24;8.27;;;4.80;;
37087;SDS011;23002;52.676;6.432;2023-11-21T14:01:05;13.02;;;5.18;;
37087;SDS011;23002;52.676;6.432;2023-11-21T14:03:39;8.70;;;4.60;;
37087;SDS011;23002;52.676;6.432;2023-11-21T14:06:18;10.25;;;5.28;;
37087;SDS011;23002;52.676;6.432;2023-11-21T14:08:50;8.43;;;4.70;;
37087;SDS011;23002;52.676;6.432;2023-11-21T14:11:19;9.02;;;5.15;;
37087;SDS011;23002;52.676;6.432;2023-11-21T14:13:49;11.95;;;5.03;;
37087;SDS011;23002;52.676;6.432;2023-11-21T14:16:16;11.60;;;5.38;;
37087;SDS011;23002;52.676;6.432;2023-11-21T14:18:44;8.65;;;4.35;;
37087;SDS011;23002;52.676;6.432;2023-11-21T14:21:30;12.40;;;5.40;;
37087;SDS011;23002;52.676;6.432;2023-11-21T14:23:58;9.30;;;4.85;;
37087;SDS011;23002;52.676;6.432;2023-11-21T14:26:26;8.90;;;4.72;;
37087;SDS011;23002;52.676;6.432;2023-11-21T14:28:55;11.93;;;5.80;;
37087;SDS011;23002;52.676;6.432;2023-11-21T14:31:23;11.27;;;5.72;;
37087;SDS011;23002;52.676;6.432;2023-11-21T14:33:50;10.48;;;5.97;;
37087;SDS011;23002;52.676;6.432;2023-11-21T14:36:17;8.77;;;5.20;;
37087;SDS011;23002;52.676;6.432;2023-11-21T14:38:45;12.30;;;6.05;;
37087;SDS011;23002;52.676;6.432;2023-11-21T14:41:12;9.60;;;5.47;;
37087;SDS011;23002;52.676;6.432;2023-11-21T14:43:40;12.38;;;5.78;;
37087;SDS011;23002;52.676;6.432;2023-11-21T14:46:09;10.35;;;5.95;;